Velkommen til

Stord Flyklubb

Om oss

Historien til Stord Flyklubb

Klubbens aner strekker seg tilbake til 1969 med sjøfly. Siden har vi sett vanlige motorfly og glidefly, men det er sportsfly som er hovedfokuset i dag

En kilometer vei vil ta deg en kilometer

En kilometer rullebane vil ta deg hvor enn du vil

Bli pilot

Alle kan lære å fly!

Ta en prøvetur hos oss og se hvor moro det er! Prøveturen gir deg en mulighet til å se om dette er noe du har lyst til å gå videre med.

Teorien tas av de fleste som hjemmeundervisning. Nytt læremateriell gjør opplæringen både enklere og mer strømlinjeformet.

Praksis kan påbegynnes mens man tar teorien, men teorien må være bestått før man kan fly solo. 

METAR Haugesund
ENHD 032150Z 12017KT 3700 SN BKN005 OVC010 00/M00 Q0991 ENHD 032120Z 12019KT 3100 SN VV008 00/M00 Q0991 ENHD 032050Z 12017KT 3000 SN VV010 00/M00 Q0991 ENHD 032020Z 11018KT 4300 -SN OVC005 00/M00 Q0991 ENHD 031950Z 12017KT 4800 -SNRA BKN007 OVC014 M00/M01 Q0990 ENHD 031920Z 11019KT 3200 SN SCT005 OVC009 M00/M01 Q0990 TAF ENHD 031700Z 0318/0321 12018G28KT 3000 -SN SCT007 BKN014 TEMPO 0318/0321 1000 SN VV004
METAR Flesland
ENBR 032150Z 14009KT 8000 -SN SCT013 BKN025 M00/M02 Q0991 RMK WIND 1200FT 13026KT ENBR 032120Z 14009KT 9000 -SN FEW009 SCT014 BKN025 M00/M02 Q0991 RMK WIND 1200FT 13026KT ENBR 032050Z 14007KT 9999 -SN FEW009 BKN025 BKN040 M00/M02 Q0990 RMK WIND 1200FT 13025KT ENBR 032020Z 14008KT 9999 VCSH SCT025 BKN035 M00/M02 Q0990 TEMPO 2000 SN VV008 RMK WIND 1200FT 13026KT ENBR 031950Z 14009KT 9000 VCSH VV020 M00/M02 Q0990 TEMPO 2000 SN VV008 RMK WIND 1200FT 13023KT ENBR 031920Z 13008KT 8000 -SN VV015 M00/M02 Q0990 TEMPO 2000 SN VV008 RMK WIND 1200FT 13021KT TAF ENBR 0318/0418 13008KT 9999 -SN FEW015 BKN030 TEMPO 0318/0408 2000 SN VV008 TEMPO 0321/0408 15020G30KT